Time;durP1;ratioP1;P1;durP2;ratioP2;P2;SDS_P1;SDS_P2;PMS_P1;PMS_P2;Temp;Humidity;BMP_temperature;BMP_pressure;BME280_temperature;BME280_humidity;BME280_pressure;Samples;Min_cycle;Max_cycle;Signal;HPM_P1;HPM_P2
2023/01/16 05:02:38;;;;;;;2.40;1.85;;;6.80;95.90;;;;;;4848745;29;20294;-73
2023/01/16 05:05:07;;;;;;;5.57;1.60;;;6.70;95.70;;;;;;4859696;29;20049;-73
2023/01/16 05:07:33;;;;;;;3.65;1.55;;;7.20;96.10;;;;;;4838820;29;20054;-74
2023/01/16 05:10:01;;;;;;;4.05;1.77;;;6.70;95.80;;;;;;4855558;29;20681;-74
2023/01/16 05:12:27;;;;;;;4.43;1.45;;;6.80;95.80;;;;;;4855995;29;20065;-75
2023/01/16 05:14:54;;;;;;;3.72;1.63;;;6.70;95.90;;;;;;4855998;29;20052;-74
2023/01/16 05:17:24;;;;;;;5.10;1.90;;;6.70;95.90;;;;;;4845643;29;20427;-75
2023/01/16 05:19:51;;;;;;;4.53;1.70;;;6.70;95.90;;;;;;4854004;29;20064;-73
2023/01/16 05:22:18;;;;;;;3.92;1.73;;;6.70;95.80;;;;;;4853931;29;20325;-74
2023/01/16 05:24:45;;;;;;;3.63;2.80;;;6.90;96.00;;;;;;4855294;29;20113;-75
2023/01/16 05:27:13;;;;;;;4.00;2.55;;;7.00;96.10;;;;;;4827635;29;20050;-73
2023/01/16 05:29:40;;;;;;;4.65;2.92;;;6.60;95.80;;;;;;4872304;23;20115;-72
2023/01/16 05:32:08;;;;;;;3.92;2.38;;;6.60;95.70;;;;;;4861721;29;20090;-74
2023/01/16 05:34:35;;;;;;;4.60;2.78;;;6.60;95.80;;;;;;4858174;29;20076;-72
2023/01/16 05:37:02;;;;;;;9.73;6.93;;;6.70;96.00;;;;;;4873969;29;20041;-71
2023/01/16 05:39:29;;;;;;;9.98;6.88;;;7.80;96.20;;;;;;4843923;29;20065;-71
2023/01/16 05:41:56;;;;;;;6.15;3.72;;;6.60;95.90;;;;;;4818649;29;20042;-71
2023/01/16 05:44:23;;;;;;;9.02;5.78;;;7.00;95.90;;;;;;4818462;29;20489;-72
2023/01/16 05:46:50;;;;;;;15.60;9.68;;;6.50;95.90;;;;;;4827644;29;20574;-72
2023/01/16 05:49:17;;;;;;;6.43;4.63;;;6.60;96.00;;;;;;4833628;29;20050;-72
2023/01/16 05:51:44;;;;;;;6.03;3.03;;;6.60;95.80;;;;;;4835390;29;20054;-72
2023/01/16 05:54:12;;;;;;;4.15;2.42;;;6.60;95.70;;;;;;4835322;29;20057;-71
2023/01/16 05:56:39;;;;;;;3.00;2.13;;;6.60;95.90;;;;;;4831346;29;20080;-71
2023/01/16 05:59:08;;;;;;;4.50;2.05;;;6.60;95.70;;;;;;4821245;29;20727;-71
2023/01/16 06:01:35;;;;;;;5.28;2.13;;;7.20;95.80;;;;;;4828046;29;20045;-71
2023/01/16 06:04:02;;;;;;;4.63;2.17;;;6.50;95.70;;;;;;4833212;29;20057;-72
2023/01/16 06:06:29;;;;;;;7.07;3.22;;;6.50;95.50;;;;;;4820366;29;20056;-72
2023/01/16 06:08:56;;;;;;;2.97;2.10;;;6.50;95.70;;;;;;4836346;29;20058;-71
2023/01/16 06:11:24;;;;;;;4.93;3.60;;;6.40;95.70;;;;;;4843743;29;20526;-71
2023/01/16 06:13:50;;;;;;;3.45;2.63;;;4.90;95.40;;;;;;4828900;29;20463;-71
2023/01/16 06:16:17;;;;;;;3.83;2.10;;;6.30;95.70;;;;;;4838174;29;20068;-71
2023/01/16 06:18:44;;;;;;;4.80;1.85;;;6.30;95.70;;;;;;4837515;29;20053;-71
2023/01/16 06:21:11;;;;;;;4.80;1.98;;;6.30;95.80;;;;;;4841947;29;20056;-71
2023/01/16 06:23:38;;;;;;;6.88;4.07;;;6.20;95.90;;;;;;4854965;29;20050;-71
2023/01/16 06:26:09;;;;;;;3.55;2.45;;;6.20;96.00;;;;;;4839831;29;20061;-70
2023/01/16 06:28:37;;;;;;;6.20;3.53;;;6.20;95.90;;;;;;4854755;29;20497;-71
2023/01/16 06:31:05;;;;;;;31.70;17.98;;;6.10;95.70;;;;;;4835160;29;20042;-71
2023/01/16 06:33:32;;;;;;;16.65;11.27;;;6.00;95.90;;;;;;4840638;29;20498;-72
2023/01/16 06:35:59;;;;;;;12.10;8.60;;;8.00;96.50;;;;;;4856157;29;20049;-71
2023/01/16 06:38:26;;;;;;;4.35;3.50;;;6.00;95.90;;;;;;4855020;29;20057;-71
2023/01/16 06:40:56;;;;;;;3.22;2.65;;;6.00;96.00;;;;;;4866770;29;20129;-71
2023/01/16 06:43:24;;;;;;;3.60;2.50;;;6.00;96.00;;;;;;4836496;29;20054;-71
2023/01/16 06:45:51;;;;;;;6.60;1.90;;;5.90;96.00;;;;;;4852012;29;20049;-71
2023/01/16 06:48:18;;;;;;;3.67;1.40;;;5.90;96.10;;;;;;4851455;29;20053;-71
2023/01/16 06:50:45;;;;;;;6.05;1.70;;;5.90;95.90;;;;;;4838412;29;20054;-72
2023/01/16 06:53:12;;;;;;;3.05;1.80;;;5.90;96.20;;;;;;4839977;29;20145;-71
2023/01/16 06:55:40;;;;;;;4.30;1.90;;;6.00;96.10;;;;;;4870758;29;20075;-71
2023/01/16 06:58:08;;;;;;;4.53;2.25;;;5.80;96.10;;;;;;4855265;29;20061;-71
2023/01/16 07:00:35;;;;;;;9.50;3.08;;;5.80;96.00;;;;;;4854626;29;20505;-70
2023/01/16 07:03:03;;;;;;;3.38;2.25;;;7.20;96.50;;;;;;4836905;29;20056;-71
2023/01/16 07:05:31;;;;;;;5.28;2.80;;;5.80;96.00;;;;;;4818336;29;20061;-72
2023/01/16 07:07:57;;;;;;;5.03;3.03;;;5.70;96.10;;;;;;4818865;29;20061;-71
2023/01/16 07:10:24;;;;;;;8.57;3.40;;;5.70;96.20;;;;;;4843573;29;20739;-71
2023/01/16 07:12:52;;;;;;;4.60;3.03;;;5.70;96.00;;;;;;4861368;29;20050;-68
2023/01/16 07:23:58;;;;;;;6.05;5.15;;;5.70;95.90;;;;;;4871241;29;20069;-71
2023/01/16 07:26:25;;;;;;;4.70;2.45;;;5.60;95.90;;;;;;4857797;29;20064;-71
2023/01/16 07:28:53;;;;;;;5.75;2.80;;;5.60;95.90;;;;;;4857574;29;20414;-70
2023/01/16 07:31:20;;;;;;;4.55;3.45;;;5.70;96.10;;;;;;4866942;29;20534;-71
2023/01/16 07:33:47;;;;;;;10.60;6.53;;;5.60;96.00;;;;;;4854576;29;20054;-71
2023/01/16 07:36:15;;;;;;;8.35;4.40;;;5.70;96.00;;;;;;4840753;29;20115;-71
2023/01/16 07:38:41;;;;;;;4.93;2.60;;;5.60;96.00;;;;;;4839421;29;20050;-71
2023/01/16 07:41:08;;;;;;;4.18;2.38;;;5.70;96.00;;;;;;4843376;29;20529;-71
2023/01/16 07:43:35;;;;;;;4.50;2.65;;;6.20;96.00;;;;;;4873069;29;20113;-72
2023/01/16 07:46:03;;;;;;;3.67;2.65;;;5.60;95.80;;;;;;4857365;29;20513;-71
2023/01/16 07:48:30;;;;;;;4.30;3.75;;;5.70;95.80;;;;;;4858668;29;20569;-71
2023/01/16 07:50:58;;;;;;;5.13;2.88;;;5.70;96.00;;;;;;4854726;29;20085;-71
2023/01/16 07:53:27;;;;;;;3.80;2.13;;;5.70;95.80;;;;;;4854124;29;20053;-71
2023/01/16 07:55:58;;;;;;;3.40;2.20;;;5.70;95.60;;;;;;4839361;29;20529;-71
2023/01/16 07:58:25;;;;;;;4.85;2.60;;;5.80;95.70;;;;;;4838936;29;20062;-71
2023/01/16 08:00:53;;;;;;;5.13;2.75;;;5.70;95.40;;;;;;4840463;29;20046;-70
2023/01/16 08:03:21;;;;;;;6.47;3.10;;;5.80;95.70;;;;;;4847217;29;20054;-71
2023/01/16 08:05:52;;;;;;;8.15;3.25;;;5.70;95.50;;;;;;4841678;29;20050;-71
2023/01/16 08:08:20;;;;;;;4.35;2.85;;;5.70;95.60;;;;;;4841429;29;20058;-71
2023/01/16 08:10:47;;;;;;;4.78;2.92;;;5.70;95.80;;;;;;4849178;29;20038;-69
2023/01/16 08:13:14;;;;;;;5.30;2.75;;;5.70;95.50;;;;;;4864163;29;20068;-71
2023/01/16 08:15:41;;;;;;;3.33;2.38;;;5.80;95.60;;;;;;4872386;29;20055;-71
2023/01/16 08:18:07;;;;;;;7.03;2.47;;;5.80;95.30;;;;;;4857053;29;20057;-71
2023/01/16 08:20:35;;;;;;;4.57;2.80;;;5.80;95.20;;;;;;4856786;29;20429;-71
2023/01/16 08:23:02;;;;;;;4.38;3.40;;;5.90;95.40;;;;;;4854041;29;20133;-71
2023/01/16 08:25:29;;;;;;;7.00;4.05;;;6.00;95.50;;;;;;4823175;29;20054;-71
2023/01/16 08:27:56;;;;;;;3.88;2.60;;;6.00;95.40;;;;;;4823022;29;20429;-71
2023/01/16 08:30:23;;;;;;;4.35;2.70;;;6.80;95.40;;;;;;4839066;29;20053;-71
2023/01/16 08:32:58;;;;;;;4.35;2.05;;;6.00;95.30;;;;;;4833378;29;20061;-70
2023/01/16 08:35:25;;;;;;;3.78;2.00;;;6.00;95.20;;;;;;4853906;29;20064;-71
2023/01/16 08:37:52;;;;;;;6.35;2.10;;;6.10;95.10;;;;;;4828008;29;20037;-71
2023/01/16 08:40:19;;;;;;;5.20;2.83;;;6.10;95.10;;;;;;4856514;29;20075;-71
2023/01/16 08:51:23;;;;;;;6.15;2.53;;;6.20;95.70;;;;;;4840570;29;20056;-72
2023/01/16 08:53:54;;;;;;;4.32;2.42;;;6.20;95.90;;;;;;4856647;29;20056;-72
2023/01/16 08:56:22;;;;;;;5.63;2.35;;;6.20;95.70;;;;;;4856431;29;20065;-71
2023/01/16 08:58:49;;;;;;;3.00;2.13;;;6.20;95.50;;;;;;4856378;29;20057;-72
2023/01/16 09:01:17;;;;;;;3.60;1.70;;;6.30;95.50;;;;;;4867408;29;20052;-71
2023/01/16 09:03:45;;;;;;;3.15;1.50;;;6.50;95.40;;;;;;4822803;29;20752;-72
2023/01/16 09:06:12;;;;;;;3.42;1.52;;;6.50;96.00;;;;;;4823213;29;20737;-71
2023/01/16 09:08:39;;;;;;;2.63;1.65;;;6.50;96.40;;;;;;4839751;29;20560;-72
2023/01/16 09:13:56;;;;;;;73.53;41.80;;;6.50;95.80;;;;;;4805623;29;20062;-70
2023/01/16 09:16:24;;;;;;;142.70;75.07;;;6.60;96.10;;;;;;4836521;29;20062;-72
2023/01/16 09:18:52;;;;;;;86.25;48.33;;;6.60;96.20;;;;;;4837535;29;20077;-71
2023/01/16 09:21:19;;;;;;;66.35;35.63;;;6.60;96.10;;;;;;4843723;29;20112;-72
2023/01/16 09:23:46;;;;;;;27.85;16.15;;;6.70;96.70;;;;;;4840550;29;20061;-72
2023/01/16 09:26:13;;;;;;;68.53;41.67;;;6.70;96.80;;;;;;4841327;29;20056;-72
2023/01/16 09:28:40;;;;;;;23.95;14.52;;;6.80;96.70;;;;;;4842262;29;20057;-71
2023/01/16 09:31:07;;;;;;;27.45;19.13;;;7.00;96.80;;;;;;4839878;29;20068;-73
2023/01/16 09:33:36;;;;;;;11.27;7.72;;;6.70;96.70;;;;;;4822382;29;20081;-72
2023/01/16 09:36:05;;;;;;;10.02;6.60;;;6.70;96.70;;;;;;4834193;29;20082;-73
2023/01/16 09:38:31;;;;;;;16.05;10.88;;;6.80;96.40;;;;;;4836043;29;20154;-73
2023/01/16 09:40:59;;;;;;;12.18;8.43;;;6.70;96.50;;;;;;4836689;29;20066;-72
2023/01/16 09:43:40;;;;;;;9.68;6.35;;;6.80;96.40;;;;;;4826354;29;20688;-73
2023/01/16 09:46:17;;;;;;;5.75;4.70;;;6.70;96.70;;;;;;4857656;29;20048;-73
2023/01/16 09:48:53;;;;;;;5.15;4.00;;;6.80;96.00;;;;;;4857503;29;20513;-73
2023/01/16 10:00:27;;;;;;;3.45;2.50;;;6.70;96.50;;;;;;4839197;29;20118;-73
2023/01/16 10:02:54;;;;;;;3.22;2.13;;;6.70;96.40;;;;;;4846659;29;20148;-72
2023/01/16 10:05:26;;;;;;;2.80;2.50;;;6.70;96.30;;;;;;4823296;29;20085;-72
2023/01/16 10:08:17;;;;;;;3.85;2.55;;;6.70;96.20;;;;;;4824033;29;20053;-73
2023/01/16 10:10:50;;;;;;;3.30;2.13;;;6.70;96.00;;;;;;4821889;29;20054;-73
2023/01/16 10:13:29;;;;;;;6.35;3.38;;;6.70;96.30;;;;;;4848737;29;20049;-73
2023/01/16 10:16:04;;;;;;;2.85;2.05;;;6.80;96.80;;;;;;4838522;29;20056;-73
2023/01/16 10:19:10;;;;;;;4.57;2.30;;;6.80;96.70;;;;;;4836417;29;20149;-72
2023/01/16 10:21:59;;;;;;;4.70;3.03;;;6.70;97.00;;;;;;4842696;29;20053;-72
2023/01/16 10:24:47;;;;;;;3.92;2.17;;;6.70;97.20;;;;;;4874450;29;20065;-72
2023/01/16 10:27:34;;;;;;;3.33;2.28;;;6.80;96.90;;;;;;4841634;29;20101;-73
2023/01/16 10:30:05;;;;;;;2.90;1.95;;;6.80;97.10;;;;;;4854638;29;20049;-73
2023/01/16 10:32:36;;;;;;;4.15;2.70;;;6.80;97.30;;;;;;4842468;29;20045;-73
2023/01/16 10:35:16;;;;;;;3.08;1.92;;;6.80;97.40;;;;;;4839536;29;21305;-72
2023/01/16 10:37:44;;;;;;;3.42;2.20;;;6.80;97.40;;;;;;4854930;29;20466;-73
2023/01/16 10:40:25;;;;;;;2.65;2.45;;;6.80;97.70;;;;;;4855216;29;20049;-72
2023/01/16 10:51:30;;;;;;;1.77;1.67;;;6.90;98.00;;;;;;4852686;29;20049;-69
2023/01/16 10:53:58;;;;;;;2.60;1.80;;;6.90;98.20;;;;;;4873466;29;20581;-68
2023/01/16 10:56:25;;;;;;;2.47;1.73;;;6.90;98.40;;;;;;4859850;29;20054;-68
2023/01/16 10:58:52;;;;;;;4.50;1.85;;;6.90;98.70;;;;;;4858200;29;20057;-68
2023/01/16 11:01:22;;;;;;;3.90;2.10;;;7.00;99.10;;;;;;4868971;29;20453;-69
2023/01/16 11:03:52;;;;;;;2.38;1.90;;;7.10;99.10;;;;;;4822987;29;20140;-70
2023/01/16 11:06:26;;;;;;;3.42;2.17;;;7.10;98.80;;;;;;4822792;29;20139;-69
2023/01/16 11:09:00;;;;;;;3.97;1.85;;;7.10;98.80;;;;;;4822865;29;20062;-72
2023/01/16 11:20:12;;;;;;;3.40;2.20;;;7.20;99.00;;;;;;4853223;29;20080;-67
2023/01/16 11:22:40;;;;;;;6.53;2.67;;;7.30;98.70;;;;;;4834313;29;20061;-67
2023/01/16 11:25:17;;;;;;;1.80;1.60;;;7.30;98.40;;;;;;4856419;29;20057;-67
2023/01/16 11:27:45;;;;;;;8.02;3.13;;;7.40;98.60;;;;;;4841929;29;20690;-67
2023/01/16 11:30:18;;;;;;;2.75;2.35;;;7.40;98.70;;;;;;4840662;29;20434;-67
2023/01/16 11:32:48;;;;;;;4.32;3.30;;;7.40;98.50;;;;;;4828795;29;20050;-67
2023/01/16 11:35:17;;;;;;;5.07;2.85;;;7.70;98.70;;;;;;4824059;29;20070;-67
2023/01/16 11:37:48;;;;;;;3.70;3.00;;;7.50;98.40;;;;;;4823639;29;20049;-67
2023/01/16 11:40:19;;;;;;;5.40;2.65;;;7.50;97.90;;;;;;4823297;29;20050;-68
2023/01/16 11:46:02;;;;;;;3.65;2.00;;;7.60;97.60;;;;;;4840676;29;20080;-72
2023/01/16 11:48:48;;;;;;;2.75;1.90;;;7.70;97.80;;;;;;4839236;29;20057;-70
2023/01/16 11:51:23;;;;;;;2.20;1.80;;;8.70;97.80;;;;;;4840166;29;20046;-70
2023/01/16 11:53:51;;;;;;;3.55;2.10;;;7.80;97.60;;;;;;4873087;29;20522;-70
2023/01/16 11:56:24;;;;;;;3.35;1.75;;;7.90;97.50;;;;;;4857698;29;20053;-70
2023/01/16 11:59:07;;;;;;;1.50;1.30;;;8.00;96.80;;;;;;4857365;29;20071;-70
2023/01/16 12:02:24;;;;;;;2.00;1.58;;;8.00;96.20;;;;;;4854720;29;20770;-70
2023/01/16 12:08:10;;;;;;;6.18;3.20;;;8.20;96.00;;;;;;4835907;29;20054;-70
2023/01/16 12:10:54;;;;;;;1.42;1.33;;;8.10;96.40;;;;;;4835597;29;20061;-70
2023/01/16 12:16:24;;;;;;;3.53;2.22;;;8.10;96.00;;;;;;4840151;29;20054;-69
2023/01/16 12:19:10;;;;;;;3.88;2.53;;;8.20;96.10;;;;;;4822820;29;20046;-70
2023/01/16 12:21:51;;;;;;;3.33;2.00;;;8.20;96.00;;;;;;4841896;29;20061;-70
2023/01/16 12:24:40;;;;;;;2.13;1.92;;;8.20;96.30;;;;;;4856811;29;20059;-70
2023/01/16 12:27:07;;;;;;;2.17;1.48;;;8.30;96.40;;;;;;4834228;29;20054;-70
2023/01/16 12:30:11;;;;;;;2.25;1.60;;;8.70;96.00;;;;;;4837860;29;20042;-70
2023/01/16 12:33:11;;;;;;;1.77;1.50;;;8.40;96.00;;;;;;4823984;29;20056;-70
2023/01/16 12:35:38;;;;;;;2.17;1.88;;;8.40;96.00;;;;;;4853459;29;20049;-69
2023/01/16 12:38:15;;;;;;;2.10;1.50;;;8.40;96.10;;;;;;4839321;29;20066;-71
2023/01/16 12:43:18;;;;;;;2.00;1.75;;;8.40;95.90;;;;;;4823281;29;20145;-71
2023/01/16 12:44:06;;;;;;;3.47;2.22;;;8.40;96.10;;;;;;4855893;29;20054;-71
2023/01/16 12:47:06;;;;;;;1.63;1.48;;;8.40;96.50;;;;;;4837891;29;20117;-71
2023/01/16 12:49:56;;;;;;;2.33;1.33;;;8.50;96.40;;;;;;4839445;29;20057;-70
2023/01/16 12:52:41;;;;;;;7.60;3.75;;;8.50;96.50;;;;;;4848513;29;20042;-70
2023/01/16 12:55:14;;;;;;;2.20;1.45;;;8.40;96.10;;;;;;4852962;29;20045;-71
2023/01/16 12:57:53;;;;;;;4.13;2.40;;;8.40;95.90;;;;;;4842941;29;20053;-70
2023/01/16 13:00:23;;;;;;;4.32;2.25;;;8.30;96.30;;;;;;4848483;29;20080;-71
2023/01/16 13:03:01;;;;;;;;;;;8.30;95.90;;;;;;4866227;29;20123;-71
2023/01/16 13:05:33;;;;;;;2.28;1.55;;;8.40;96.20;;;;;;4853256;29;20030;-70
2023/01/16 13:08:08;;;;;;;2.63;1.85;;;8.40;95.80;;;;;;4825088;29;20057;-70
2023/01/16 13:13:29;;;;;;;2.40;1.85;;;8.30;96.50;;;;;;4837594;29;20050;-71
2023/01/16 13:16:08;;;;;;;2.20;1.60;;;8.40;96.40;;;;;;4822311;29;20046;-71
2023/01/16 13:18:42;;;;;;;3.63;2.60;;;8.40;96.10;;;;;;4841093;29;20041;-71
2023/01/16 13:21:20;;;;;;;3.17;2.60;;;8.50;95.90;;;;;;4856685;29;20049;-71
2023/01/16 13:23:54;;;;;;;2.30;2.10;;;8.40;95.80;;;;;;4837195;29;20046;-71
2023/01/16 13:26:23;;;;;;;2.67;2.20;;;8.40;96.00;;;;;;4837139;29;20053;-71
2023/01/16 13:29:13;;;;;;;2.95;2.75;;;8.40;95.80;;;;;;4805451;29;20053;-72
2023/01/16 13:31:54;;;;;;;2.70;1.70;;;8.40;95.60;;;;;;4825211;29;20045;-70
2023/01/16 13:34:44;;;;;;;0.95;0.95;;;8.50;94.50;;;;;;4837164;29;20054;-70
2023/01/16 13:37:41;;;;;;;2.25;1.58;;;8.60;93.60;;;;;;4848661;29;20065;-70
2023/01/16 13:41:07;;;;;;;2.92;1.50;;;8.60;93.20;;;;;;4833535;29;20070;-70
2023/01/16 13:46:24;;;;;;;;;;;9.10;93.30;;;;;;4834266;29;20049;-70
2023/01/16 13:48:56;;;;;;;3.25;2.03;;;9.00;93.10;;;;;;4819704;29;19932;-70
2023/01/16 13:51:26;;;;;;;1.50;1.27;;;9.10;92.30;;;;;;4819704;29;20050;-70
2023/01/16 13:53:58;;;;;;;2.05;1.33;;;10.00;92.50;;;;;;4840352;29;20053;-70
2023/01/16 13:56:30;;;;;;;2.15;1.25;;;9.30;92.30;;;;;;4818356;29;20061;-70
2023/01/16 13:59:08;;;;;;;2.55;2.22;;;9.30;92.30;;;;;;4834709;29;20057;-70
2023/01/16 14:01:44;;;;;;;18.40;14.73;;;9.90;91.90;;;;;;4828356;29;20595;-70
2023/01/16 14:04:18;;;;;;;6.45;5.88;;;10.50;90.90;;;;;;4837230;29;20064;-70
2023/01/16 14:10:09;;;;;;;1.85;1.10;;;11.90;89.90;;;;;;4821706;29;20060;-69
2023/01/16 14:13:01;;;;;;;53.90;39.47;;;10.90;88.60;;;;;;4832215;29;20058;-70
2023/01/16 14:18:38;;;;;;;24.88;22.40;;;10.90;88.60;;;;;;4835443;29;20072;-70
2023/01/16 14:21:23;;;;;;;6.70;6.03;;;10.80;88.50;;;;;;4835278;29;20094;-70
2023/01/16 14:24:02;;;;;;;10.38;9.38;;;10.80;88.50;;;;;;4817913;29;20058;-70
2023/01/16 14:26:32;;;;;;;20.67;17.05;;;11.30;89.00;;;;;;4835272;29;20053;-70
2023/01/16 14:29:24;;;;;;;5.82;3.17;;;10.30;88.10;;;;;;4836047;29;20052;-70
2023/01/16 14:32:13;;;;;;;8.43;6.70;;;10.00;88.40;;;;;;4822295;29;20054;-71
2023/01/16 14:34:59;;;;;;;24.17;18.52;;;9.80;89.40;;;;;;4850018;29;20117;-70
2023/01/16 14:37:30;;;;;;;54.97;40.63;;;10.50;90.10;;;;;;4836894;29;20050;-70
2023/01/16 14:40:09;;;;;;;13.50;9.65;;;10.40;90.10;;;;;;4821283;29;20474;-72
2023/01/16 14:56:50;;;;;;;4.00;1.40;;;10.50;92.60;;;;;;4834427;29;20518;-73
2023/01/16 14:59:30;;;;;;;5.93;4.07;;;8.90;93.80;;;;;;4821397;29;20156;-73
2023/01/16 15:02:19;;;;;;;;;;;8.70;95.80;;;;;;4837179;29;20685;-73
2023/01/16 15:05:08;;;;;;;2.27;1.60;;;8.20;97.10;;;;;;4833777;29;19963;-73
2023/01/16 15:07:45;;;;;;;3.15;2.92;;;7.90;98.00;;;;;;4836243;29;20385;-73
2023/01/16 15:10:14;;;;;;;2.30;1.50;;;7.80;98.70;;;;;;4851199;29;20049;-72
2023/01/16 15:12:43;;;;;;;2.08;1.30;;;7.80;98.90;;;;;;4836963;29;20363;-73
2023/01/16 15:15:25;;;;;;;4.45;3.22;;;7.60;99.70;;;;;;4836067;29;20140;-73
2023/01/16 15:23:38;;;;;;;4.53;2.40;;;7.40;99.90;;;;;;4851302;29;20493;-73
2023/01/16 15:26:05;;;;;;;1.35;1.20;;;7.30;99.90;;;;;;4854356;29;20152;-73
2023/01/16 15:28:40;;;;;;;2.33;1.85;;;7.70;99.90;;;;;;4835394;29;20110;-73
2023/01/16 15:31:10;;;;;;;1.73;1.63;;;7.70;99.90;;;;;;4836574;29;20049;-73
2023/01/16 15:33:48;;;;;;;3.08;2.88;;;7.20;99.90;;;;;;4824618;29;20051;-73
2023/01/16 15:36:30;;;;;;;2.53;1.70;;;8.30;99.90;;;;;;4849077;29;20467;-73
2023/01/16 15:39:25;;;;;;;1.60;1.45;;;7.00;99.90;;;;;;4832297;29;20056;-77
2023/01/16 15:48:20;;;;;;;4.90;2.17;;;6.90;99.90;;;;;;4829820;29;20137;-73
2023/01/16 15:51:00;;;;;;;1.42;1.30;;;6.90;99.90;;;;;;4851746;29;20050;-73
2023/01/16 15:53:52;;;;;;;1.10;1.08;;;6.90;99.90;;;;;;4849651;29;20080;-73
2023/01/16 15:56:41;;;;;;;2.03;1.80;;;7.00;99.90;;;;;;4872540;29;20498;-73
2023/01/16 15:59:23;;;;;;;1.60;1.50;;;7.00;99.90;;;;;;4870870;29;20056;-73
2023/01/16 16:01:50;;;;;;;1.70;1.60;;;6.90;99.90;;;;;;4846497;29;20534;-73
2023/01/16 16:04:17;;;;;;;4.28;3.40;;;7.00;99.90;;;;;;4816700;29;20043;-74
2023/01/16 16:06:45;;;;;;;2.00;1.73;;;6.90;99.90;;;;;;4842947;29;20232;-73
2023/01/16 16:09:22;;;;;;;2.00;1.80;;;7.00;99.90;;;;;;4857580;29;20068;-73
2023/01/16 16:11:52;;;;;;;1.98;1.40;;;7.00;99.90;;;;;;4838668;29;20057;-73
2023/01/16 16:20:29;;;;;;;3.78;2.63;;;8.30;99.90;;;;;;4839853;29;20050;-72
2023/01/16 16:23:03;;;;;;;6.82;3.42;;;7.10;99.90;;;;;;4847850;29;20072;-70
2023/01/16 16:25:36;;;;;;;1.73;1.48;;;7.00;99.90;;;;;;4857848;29;20046;-71
2023/01/16 16:28:18;;;;;;;2.20;1.45;;;7.00;99.90;;;;;;4871263;29;20134;-72
2023/01/16 16:30:46;;;;;;;1.40;1.30;;;6.90;99.90;;;;;;4844620;29;20057;-72
2023/01/16 16:33:18;;;;;;;1.30;1.20;;;6.70;99.90;;;;;;4822125;29;20050;-72
2023/01/16 16:35:50;;;;;;;1.48;1.27;;;7.70;99.90;;;;;;4837263;29;20106;-71
2023/01/16 16:38:25;;;;;;;1.20;1.10;;;6.70;99.90;;;;;;4819893;29;20126;-72
2023/01/16 16:41:13;;;;;;;1.13;1.02;;;6.60;99.90;;;;;;4823389;29;20046;-71
2023/01/16 16:43:49;;;;;;;1.58;1.40;;;6.60;99.90;;;;;;4793854;29;20054;-72
2023/01/16 16:46:22;;;;;;;2.05;1.40;;;6.50;99.90;;;;;;4853614;29;20062;-72
2023/01/16 16:48:57;;;;;;;2.00;1.75;;;6.50;99.90;;;;;;4839563;29;20041;-72
2023/01/16 16:51:28;;;;;;;2.00;1.40;;;6.50;99.90;;;;;;4835856;29;20498;-72
2023/01/16 16:54:03;;;;;;;2.00;1.50;;;6.40;99.90;;;;;;4838087;29;20050;-72
2023/01/16 16:56:32;;;;;;;2.05;1.85;;;6.40;99.90;;;;;;4838629;29;20500;-72
2023/01/16 16:58:59;;;;;;;1.45;1.35;;;6.20;99.90;;;;;;4844533;29;20053;-72
2023/01/16 17:01:36;;;;;;;2.72;1.35;;;6.30;99.90;;;;;;4838481;29;20054;-72
2023/01/16 17:04:05;;;;;;;1.90;1.63;;;6.20;99.90;;;;;;4856342;29;20504;-71
2023/01/16 17:06:34;;;;;;;15.65;5.53;;;6.20;99.90;;;;;;4839294;29;20058;-71
2023/01/16 17:09:01;;;;;;;3.35;2.25;;;6.10;99.90;;;;;;4837102;29;20050;-71
2023/01/16 17:11:28;;;;;;;2.53;1.33;;;6.00;99.90;;;;;;4852923;29;20053;-71
2023/01/16 17:13:55;;;;;;;2.13;1.92;;;7.30;99.90;;;;;;4837628;29;20042;-71
2023/01/16 17:16:27;;;;;;;5.45;3.10;;;6.10;99.90;;;;;;4835922;29;20145;-71
2023/01/16 17:18:58;;;;;;;3.47;1.85;;;7.20;99.90;;;;;;4842230;29;20525;-71
2023/01/16 17:21:25;;;;;;;2.30;1.75;;;5.80;99.90;;;;;;4855849;29;20053;-71
2023/01/16 17:23:53;;;;;;;3.13;1.77;;;6.70;99.90;;;;;;4853802;29;20125;-71
2023/01/16 17:26:19;;;;;;;2.60;1.90;;;6.10;99.90;;;;;;4839680;29;20061;-72
2023/01/16 17:28:46;;;;;;;3.58;2.13;;;5.70;99.90;;;;;;4836941;29;20085;-71
2023/01/16 17:31:18;;;;;;;2.35;1.88;;;5.60;99.90;;;;;;4838253;29;20053;-71
2023/01/16 17:33:46;;;;;;;2.10;1.88;;;5.70;99.90;;;;;;4824005;29;20060;-71
2023/01/16 17:36:23;;;;;;;1.63;1.50;;;5.70;99.90;;;;;;4836749;29;20427;-72
2023/01/16 17:38:50;;;;;;;2.22;1.70;;;6.00;99.90;;;;;;4821931;29;20049;-71
2023/01/16 17:46:41;;;;;;;1.85;1.75;;;5.80;99.90;;;;;;4841260;29;20045;-72
2023/01/16 17:49:08;;;;;;;2.13;1.60;;;7.20;99.90;;;;;;4846923;29;20506;-72
2023/01/16 17:51:35;;;;;;;2.20;1.75;;;5.80;99.90;;;;;;4851903;29;20131;-72
2023/01/16 17:54:02;;;;;;;1.63;1.52;;;5.70;99.90;;;;;;4853942;29;20105;-72
2023/01/16 17:56:29;;;;;;;2.22;1.33;;;5.80;99.90;;;;;;4845564;29;20133;-71
2023/01/16 17:59:14;;;;;;;2.08;1.80;;;5.70;99.90;;;;;;4851691;29;20058;-71
2023/01/16 18:01:41;;;;;;;1.70;1.42;;;5.60;99.90;;;;;;4836518;29;20094;-71
2023/01/16 18:04:13;;;;;;;2.17;1.95;;;6.80;99.90;;;;;;4828289;29;20054;-71
2023/01/16 18:06:44;;;;;;;3.40;2.08;;;5.50;99.90;;;;;;4845827;29;20137;-71
2023/01/16 18:09:12;;;;;;;2.92;1.88;;;5.50;99.90;;;;;;4851150;29;20133;-71
2023/01/16 18:17:26;;;;;;;3.28;1.95;;;5.40;99.90;;;;;;4842437;29;20530;-72
2023/01/16 18:20:01;;;;;;;1.75;1.65;;;5.40;99.90;;;;;;4828673;29;20058;-71
2023/01/16 18:22:33;;;;;;;1.58;1.48;;;5.30;99.90;;;;;;4832767;29;20069;-71
2023/01/16 18:25:01;;;;;;;1.70;1.60;;;5.40;99.90;;;;;;4837091;29;20065;-71
2023/01/16 18:27:28;;;;;;;1.77;1.67;;;6.80;99.90;;;;;;4819169;29;20062;-72
2023/01/16 18:29:55;;;;;;;1.10;1.10;;;5.60;99.90;;;;;;4820092;29;20064;-71
2023/01/16 18:32:23;;;;;;;1.27;1.15;;;5.20;99.90;;;;;;4837244;29;20049;-72
2023/01/16 18:34:56;;;;;;;1.38;1.27;;;5.10;99.90;;;;;;4821594;29;20140;-71
2023/01/16 18:37:35;;;;;;;4.03;3.63;;;5.30;99.90;;;;;;4834271;29;20046;-71
2023/01/16 19:02:55;;;;;;;1.40;1.30;;;5.60;99.90;;;;;;4838119;29;20042;-71
2023/01/16 19:05:22;;;;;;;1.70;1.42;;;4.80;99.90;;;;;;4841402;29;20054;-70
2023/01/16 19:07:52;;;;;;;6.43;1.42;;;5.20;99.90;;;;;;4818996;29;20050;-71
2023/01/16 19:10:33;;;;;;;2.33;1.98;;;5.10;99.90;;;;;;4836230;29;20685;-71
2023/01/16 19:13:02;;;;;;;2.35;1.50;;;4.80;99.90;;;;;;4810965;29;20049;-70
2023/01/16 19:15:34;;;;;;;3.33;1.70;;;4.80;99.90;;;;;;4809875;29;20056;-71
2023/01/16 19:18:02;;;;;;;2.63;2.08;;;4.80;99.90;;;;;;4836888;29;20447;-72
2023/01/16 19:20:30;;;;;;;9.35;4.35;;;4.80;99.90;;;;;;4792932;29;20154;-71
2023/01/16 19:23:01;;;;;;;1.85;1.50;;;5.50;99.90;;;;;;4779607;29;20805;-72
2023/01/16 19:25:28;;;;;;;2.10;1.90;;;4.70;99.90;;;;;;4779925;29;20074;-72
2023/01/16 19:27:56;;;;;;;2.35;2.15;;;5.90;99.90;;;;;;4801513;29;20054;-71
2023/01/16 19:30:23;;;;;;;1.90;1.73;;;5.20;99.90;;;;;;4786880;29;20075;-71
2023/01/16 19:32:50;;;;;;;3.70;2.67;;;4.70;99.90;;;;;;4768621;30;20052;-72
2023/01/16 19:35:18;;;;;;;4.22;3.42;;;4.70;99.90;;;;;;4773636;29;20063;-72
2023/01/16 19:37:46;;;;;;;2.63;1.90;;;5.10;99.90;;;;;;4780113;29;20104;-72
2023/01/16 19:40:14;;;;;;;3.97;2.42;;;4.70;99.90;;;;;;4826587;29;20485;-72
2023/01/16 19:48:21;;;;;;;3.78;1.90;;;6.30;99.90;;;;;;4841395;29;20101;-72
2023/01/16 19:50:49;;;;;;;1.70;1.60;;;5.60;99.90;;;;;;4839401;29;20156;-72
2023/01/16 19:53:16;;;;;;;2.08;1.60;;;4.90;99.90;;;;;;4837873;29;20046;-71
2023/01/16 19:55:43;;;;;;;4.03;2.22;;;6.20;99.90;;;;;;4840279;29;20069;-73
2023/01/16 19:58:10;;;;;;;4.65;1.85;;;4.60;99.90;;;;;;4836383;29;20054;-73
2023/01/16 20:00:38;;;;;;;3.50;2.05;;;4.60;99.90;;;;;;4842361;29;20878;-73
2023/01/16 20:03:13;;;;;;;5.80;2.78;;;4.60;99.90;;;;;;4830440;29;20058;-72
2023/01/16 20:05:42;;;;;;;4.05;2.47;;;4.60;99.90;;;;;;4822530;29;20400;-73
2023/01/16 20:08:11;;;;;;;3.22;1.63;;;4.70;99.90;;;;;;4823835;29;20548;-75
2023/01/16 20:10:40;;;;;;;4.53;2.20;;;4.80;99.90;;;;;;4824153;29;20045;-75
2023/01/16 20:13:07;;;;;;;2.85;1.95;;;4.60;99.90;;;;;;4826950;29;20506;-74
2023/01/16 20:15:36;;;;;;;2.38;1.90;;;5.80;99.90;;;;;;4811828;29;20050;-76
2023/01/16 20:18:03;;;;;;;2.08;1.55;;;6.00;99.90;;;;;;4824655;29;20450;-76
2023/01/16 20:20:30;;;;;;;4.55;1.83;;;4.60;99.90;;;;;;4852308;29;20085;-75
2023/01/16 20:22:57;;;;;;;3.15;2.05;;;5.40;99.90;;;;;;4840750;29;20513;-75
2023/01/16 20:25:25;;;;;;;2.47;1.70;;;4.70;99.90;;;;;;4827674;29;20042;-76
2023/01/16 20:27:54;;;;;;;3.38;2.10;;;4.70;99.90;;;;;;4826969;29;20674;-75
2023/01/16 20:33:08;;;;;;;7.60;3.25;;;4.70;99.90;;;;;;4846889;29;20109;-76
2023/01/16 20:35:35;;;;;;;7.72;3.22;;;4.50;99.90;;;;;;4822227;29;20566;-76
2023/01/16 20:38:06;;;;;;;19.27;5.88;;;4.60;99.90;;;;;;4827800;29;20045;-76
2023/01/16 20:40:33;;;;;;;8.13;3.85;;;4.70;99.90;;;;;;4862679;29;20073;-75
2023/01/16 20:45:57;;;;;;;4.53;2.22;;;4.50;99.90;;;;;;4841613;29;20056;-76
2023/01/16 20:48:28;;;;;;;3.47;2.50;;;4.60;99.90;;;;;;4855904;29;20053;-75